sensor_id;sensor_type;location;lat;lon;timestamp;P1;durP1;ratioP1;P2;durP2;ratioP2
44068;SDS011;29738;51.234;5.484;2023-03-19T00:00:04;7.03;;;2.83;;
44068;SDS011;29738;51.234;5.484;2023-03-19T00:02:33;5.28;;;2.53;;
44068;SDS011;29738;51.234;5.484;2023-03-19T00:05:00;6.07;;;2.53;;
44068;SDS011;29738;51.234;5.484;2023-03-19T00:07:29;5.30;;;2.63;;
44068;SDS011;29738;51.234;5.484;2023-03-19T00:09:55;5.97;;;2.97;;
44068;SDS011;29738;51.234;5.484;2023-03-19T00:12:21;6.18;;;3.17;;
44068;SDS011;29738;51.234;5.484;2023-03-19T00:14:48;6.07;;;2.97;;
44068;SDS011;29738;51.234;5.484;2023-03-19T00:17:14;6.22;;;3.05;;
44068;SDS011;29738;51.234;5.484;2023-03-19T00:19:40;7.47;;;3.05;;
44068;SDS011;29738;51.234;5.484;2023-03-19T00:22:06;6.70;;;3.33;;
44068;SDS011;29738;51.234;5.484;2023-03-19T00:24:35;5.53;;;2.75;;
44068;SDS011;29738;51.234;5.484;2023-03-19T00:27:02;6.55;;;3.05;;
44068;SDS011;29738;51.234;5.484;2023-03-19T00:29:28;5.53;;;2.83;;
44068;SDS011;29738;51.234;5.484;2023-03-19T00:31:55;5.70;;;2.85;;
44068;SDS011;29738;51.234;5.484;2023-03-19T00:34:21;7.00;;;2.97;;
44068;SDS011;29738;51.234;5.484;2023-03-19T00:36:47;6.85;;;3.13;;
44068;SDS011;29738;51.234;5.484;2023-03-19T00:39:13;6.47;;;3.28;;
44068;SDS011;29738;51.234;5.484;2023-03-19T00:41:39;5.40;;;2.85;;
44068;SDS011;29738;51.234;5.484;2023-03-19T00:44:05;7.38;;;3.25;;
44068;SDS011;29738;51.234;5.484;2023-03-19T00:46:32;5.88;;;3.15;;
44068;SDS011;29738;51.234;5.484;2023-03-19T00:48:58;5.60;;;2.95;;
44068;SDS011;29738;51.234;5.484;2023-03-19T00:51:24;6.82;;;3.15;;
44068;SDS011;29738;51.234;5.484;2023-03-19T00:53:51;7.65;;;3.22;;
44068;SDS011;29738;51.234;5.484;2023-03-19T00:56:18;5.38;;;2.75;;
44068;SDS011;29738;51.234;5.484;2023-03-19T00:58:44;5.97;;;3.20;;
44068;SDS011;29738;51.234;5.484;2023-03-19T01:01:11;5.90;;;3.35;;
44068;SDS011;29738;51.234;5.484;2023-03-19T01:03:40;7.32;;;3.08;;
44068;SDS011;29738;51.234;5.484;2023-03-19T01:06:06;7.10;;;3.50;;
44068;SDS011;29738;51.234;5.484;2023-03-19T01:08:32;7.30;;;3.50;;
44068;SDS011;29738;51.234;5.484;2023-03-19T01:11:08;7.15;;;3.08;;
44068;SDS011;29738;51.234;5.484;2023-03-19T01:13:36;8.02;;;3.30;;
44068;SDS011;29738;51.234;5.484;2023-03-19T01:16:03;5.95;;;3.05;;
44068;SDS011;29738;51.234;5.484;2023-03-19T01:18:29;7.22;;;3.67;;
44068;SDS011;29738;51.234;5.484;2023-03-19T01:20:56;6.00;;;3.30;;
44068;SDS011;29738;51.234;5.484;2023-03-19T01:23:25;7.90;;;3.58;;
44068;SDS011;29738;51.234;5.484;2023-03-19T01:25:51;7.75;;;3.53;;
44068;SDS011;29738;51.234;5.484;2023-03-19T01:28:17;7.07;;;3.60;;
44068;SDS011;29738;51.234;5.484;2023-03-19T01:30:43;6.07;;;3.35;;
44068;SDS011;29738;51.234;5.484;2023-03-19T01:33:10;6.95;;;3.17;;
44068;SDS011;29738;51.234;5.484;2023-03-19T01:35:36;5.70;;;2.97;;
44068;SDS011;29738;51.234;5.484;2023-03-19T01:38:02;6.88;;;3.30;;
44068;SDS011;29738;51.234;5.484;2023-03-19T01:40:28;7.25;;;3.35;;
44068;SDS011;29738;51.234;5.484;2023-03-19T01:45:42;6.50;;;3.38;;
44068;SDS011;29738;51.234;5.484;2023-03-19T01:48:18;6.45;;;3.10;;
44068;SDS011;29738;51.234;5.484;2023-03-19T01:50:53;6.30;;;3.17;;
44068;SDS011;29738;51.234;5.484;2023-03-19T01:53:28;5.82;;;3.10;;
44068;SDS011;29738;51.234;5.484;2023-03-19T01:56:02;6.28;;;3.33;;
44068;SDS011;29738;51.234;5.484;2023-03-19T01:58:37;6.45;;;2.92;;
44068;SDS011;29738;51.234;5.484;2023-03-19T02:01:04;6.32;;;2.90;;
44068;SDS011;29738;51.234;5.484;2023-03-19T02:03:30;6.43;;;3.03;;
44068;SDS011;29738;51.234;5.484;2023-03-19T02:05:57;6.45;;;3.30;;
44068;SDS011;29738;51.234;5.484;2023-03-19T02:08:24;6.85;;;3.20;;
44068;SDS011;29738;51.234;5.484;2023-03-19T02:10:51;6.90;;;3.17;;
44068;SDS011;29738;51.234;5.484;2023-03-19T02:13:20;6.53;;;3.22;;
44068;SDS011;29738;51.234;5.484;2023-03-19T02:15:47;6.60;;;3.10;;
44068;SDS011;29738;51.234;5.484;2023-03-19T02:18:22;6.07;;;3.05;;
44068;SDS011;29738;51.234;5.484;2023-03-19T02:23:40;7.72;;;3.38;;
44068;SDS011;29738;51.234;5.484;2023-03-19T02:26:15;7.25;;;3.35;;
44068;SDS011;29738;51.234;5.484;2023-03-19T02:28:44;5.88;;;3.17;;
44068;SDS011;29738;51.234;5.484;2023-03-19T02:31:12;6.38;;;3.10;;
44068;SDS011;29738;51.234;5.484;2023-03-19T02:33:39;6.97;;;3.28;;
44068;SDS011;29738;51.234;5.484;2023-03-19T02:36:06;6.72;;;3.60;;
44068;SDS011;29738;51.234;5.484;2023-03-19T02:38:36;7.05;;;3.50;;
44068;SDS011;29738;51.234;5.484;2023-03-19T02:41:05;5.65;;;2.83;;
44068;SDS011;29738;51.234;5.484;2023-03-19T02:43:33;6.38;;;3.28;;
44068;SDS011;29738;51.234;5.484;2023-03-19T02:46:02;6.72;;;3.40;;
44068;SDS011;29738;51.234;5.484;2023-03-19T02:48:29;6.10;;;2.83;;
44068;SDS011;29738;51.234;5.484;2023-03-19T02:50:56;7.68;;;3.72;;
44068;SDS011;29738;51.234;5.484;2023-03-19T02:53:23;7.70;;;3.42;;
44068;SDS011;29738;51.234;5.484;2023-03-19T02:55:49;8.52;;;3.38;;
44068;SDS011;29738;51.234;5.484;2023-03-19T02:58:15;10.25;;;3.35;;
44068;SDS011;29738;51.234;5.484;2023-03-19T03:00:43;7.28;;;3.22;;
44068;SDS011;29738;51.234;5.484;2023-03-19T03:03:10;6.10;;;3.55;;
44068;SDS011;29738;51.234;5.484;2023-03-19T03:05:36;7.50;;;3.83;;
44068;SDS011;29738;51.234;5.484;2023-03-19T03:08:02;8.63;;;3.67;;
44068;SDS011;29738;51.234;5.484;2023-03-19T03:10:29;7.35;;;3.50;;
44068;SDS011;29738;51.234;5.484;2023-03-19T03:12:58;7.55;;;3.53;;
44068;SDS011;29738;51.234;5.484;2023-03-19T03:15:25;6.03;;;3.15;;
44068;SDS011;29738;51.234;5.484;2023-03-19T03:17:51;7.43;;;3.65;;
44068;SDS011;29738;51.234;5.484;2023-03-19T03:20:17;6.30;;;3.20;;
44068;SDS011;29738;51.234;5.484;2023-03-19T03:22:44;6.45;;;3.35;;
44068;SDS011;29738;51.234;5.484;2023-03-19T03:25:10;8.02;;;3.70;;
44068;SDS011;29738;51.234;5.484;2023-03-19T03:27:37;7.10;;;3.50;;
44068;SDS011;29738;51.234;5.484;2023-03-19T03:30:04;8.10;;;3.80;;
44068;SDS011;29738;51.234;5.484;2023-03-19T03:32:32;7.13;;;3.78;;
44068;SDS011;29738;51.234;5.484;2023-03-19T03:34:59;7.18;;;3.67;;
44068;SDS011;29738;51.234;5.484;2023-03-19T03:37:25;7.40;;;3.72;;
44068;SDS011;29738;51.234;5.484;2023-03-19T03:39:51;6.93;;;4.03;;
44068;SDS011;29738;51.234;5.484;2023-03-19T03:42:18;9.18;;;4.07;;
44068;SDS011;29738;51.234;5.484;2023-03-19T03:44:44;7.68;;;3.90;;
44068;SDS011;29738;51.234;5.484;2023-03-19T03:47:10;7.65;;;3.72;;
44068;SDS011;29738;51.234;5.484;2023-03-19T03:49:36;8.27;;;3.50;;
44068;SDS011;29738;51.234;5.484;2023-03-19T03:52:05;8.95;;;4.18;;
44068;SDS011;29738;51.234;5.484;2023-03-19T03:54:32;8.60;;;4.07;;
44068;SDS011;29738;51.234;5.484;2023-03-19T03:56:58;8.63;;;4.32;;
44068;SDS011;29738;51.234;5.484;2023-03-19T03:59:25;7.05;;;3.80;;
44068;SDS011;29738;51.234;5.484;2023-03-19T04:01:51;7.85;;;3.97;;
44068;SDS011;29738;51.234;5.484;2023-03-19T04:04:19;7.90;;;4.18;;
44068;SDS011;29738;51.234;5.484;2023-03-19T04:06:46;9.32;;;4.30;;
44068;SDS011;29738;51.234;5.484;2023-03-19T04:09:12;8.20;;;4.80;;
44068;SDS011;29738;51.234;5.484;2023-03-19T04:11:41;8.80;;;4.72;;
44068;SDS011;29738;51.234;5.484;2023-03-19T04:14:07;8.70;;;4.60;;
44068;SDS011;29738;51.234;5.484;2023-03-19T04:16:33;10.50;;;4.65;;
44068;SDS011;29738;51.234;5.484;2023-03-19T04:18:59;7.55;;;4.30;;
44068;SDS011;29738;51.234;5.484;2023-03-19T04:21:26;8.55;;;4.88;;
44068;SDS011;29738;51.234;5.484;2023-03-19T04:23:53;10.23;;;4.97;;
44068;SDS011;29738;51.234;5.484;2023-03-19T04:26:19;9.65;;;5.35;;
44068;SDS011;29738;51.234;5.484;2023-03-19T04:28:45;10.60;;;5.05;;
44068;SDS011;29738;51.234;5.484;2023-03-19T04:31:11;7.90;;;4.20;;
44068;SDS011;29738;51.234;5.484;2023-03-19T04:33:37;8.50;;;4.82;;
44068;SDS011;29738;51.234;5.484;2023-03-19T04:36:04;9.15;;;4.95;;
44068;SDS011;29738;51.234;5.484;2023-03-19T04:38:33;11.00;;;5.40;;
44068;SDS011;29738;51.234;5.484;2023-03-19T04:40:59;10.13;;;5.18;;
44068;SDS011;29738;51.234;5.484;2023-03-19T04:43:25;10.15;;;5.22;;
44068;SDS011;29738;51.234;5.484;2023-03-19T04:45:51;9.60;;;5.53;;
44068;SDS011;29738;51.234;5.484;2023-03-19T04:48:17;9.93;;;4.93;;
44068;SDS011;29738;51.234;5.484;2023-03-19T04:50:44;9.27;;;4.95;;
44068;SDS011;29738;51.234;5.484;2023-03-19T04:53:11;10.55;;;4.82;;
44068;SDS011;29738;51.234;5.484;2023-03-19T04:55:37;9.80;;;5.78;;
44068;SDS011;29738;51.234;5.484;2023-03-19T04:58:05;9.60;;;5.40;;
44068;SDS011;29738;51.234;5.484;2023-03-19T05:00:33;8.95;;;4.95;;
44068;SDS011;29738;51.234;5.484;2023-03-19T05:02:59;11.00;;;5.70;;
44068;SDS011;29738;51.234;5.484;2023-03-19T05:05:25;9.88;;;5.45;;
44068;SDS011;29738;51.234;5.484;2023-03-19T05:07:51;9.95;;;5.07;;
44068;SDS011;29738;51.234;5.484;2023-03-19T05:10:17;11.30;;;5.35;;
44068;SDS011;29738;51.234;5.484;2023-03-19T05:12:43;13.32;;;6.00;;
44068;SDS011;29738;51.234;5.484;2023-03-19T05:15:09;10.38;;;5.57;;
44068;SDS011;29738;51.234;5.484;2023-03-19T05:17:35;12.10;;;6.20;;
44068;SDS011;29738;51.234;5.484;2023-03-19T05:20:02;11.32;;;5.85;;
44068;SDS011;29738;51.234;5.484;2023-03-19T05:22:30;11.15;;;5.40;;
44068;SDS011;29738;51.234;5.484;2023-03-19T05:24:57;10.68;;;5.97;;
44068;SDS011;29738;51.234;5.484;2023-03-19T05:27:23;12.20;;;6.18;;
44068;SDS011;29738;51.234;5.484;2023-03-19T05:29:49;12.02;;;6.25;;
44068;SDS011;29738;51.234;5.484;2023-03-19T05:32:15;11.52;;;6.03;;
44068;SDS011;29738;51.234;5.484;2023-03-19T05:34:41;10.85;;;6.07;;
44068;SDS011;29738;51.234;5.484;2023-03-19T05:37:07;11.90;;;6.28;;
44068;SDS011;29738;51.234;5.484;2023-03-19T05:39:33;13.70;;;6.63;;
44068;SDS011;29738;51.234;5.484;2023-03-19T05:41:59;10.95;;;5.90;;
44068;SDS011;29738;51.234;5.484;2023-03-19T05:44:25;13.48;;;6.45;;
44068;SDS011;29738;51.234;5.484;2023-03-19T05:46:51;10.52;;;5.57;;
44068;SDS011;29738;51.234;5.484;2023-03-19T05:49:18;13.95;;;7.03;;
44068;SDS011;29738;51.234;5.484;2023-03-19T05:51:44;11.75;;;6.28;;
44068;SDS011;29738;51.234;5.484;2023-03-19T05:54:10;13.00;;;6.85;;
44068;SDS011;29738;51.234;5.484;2023-03-19T05:56:36;13.82;;;6.63;;
44068;SDS011;29738;51.234;5.484;2023-03-19T05:59:02;11.15;;;6.13;;
44068;SDS011;29738;51.234;5.484;2023-03-19T06:01:28;11.63;;;6.05;;
44068;SDS011;29738;51.234;5.484;2023-03-19T06:03:57;12.05;;;6.13;;
44068;SDS011;29738;51.234;5.484;2023-03-19T06:06:23;17.42;;;6.68;;
44068;SDS011;29738;51.234;5.484;2023-03-19T06:08:49;11.85;;;6.60;;
44068;SDS011;29738;51.234;5.484;2023-03-19T06:11:15;13.40;;;6.30;;
44068;SDS011;29738;51.234;5.484;2023-03-19T06:13:41;11.52;;;5.97;;
44068;SDS011;29738;51.234;5.484;2023-03-19T06:16:07;13.20;;;6.53;;
44068;SDS011;29738;51.234;5.484;2023-03-19T06:18:36;12.80;;;6.20;;
44068;SDS011;29738;51.234;5.484;2023-03-19T06:21:02;13.23;;;7.10;;
44068;SDS011;29738;51.234;5.484;2023-03-19T06:23:29;12.77;;;6.60;;
44068;SDS011;29738;51.234;5.484;2023-03-19T06:25:55;12.05;;;6.60;;
44068;SDS011;29738;51.234;5.484;2023-03-19T06:28:24;13.57;;;7.10;;
44068;SDS011;29738;51.234;5.484;2023-03-19T06:31:01;13.02;;;6.88;;
44068;SDS011;29738;51.234;5.484;2023-03-19T06:33:27;14.25;;;6.80;;
44068;SDS011;29738;51.234;5.484;2023-03-19T06:35:56;13.90;;;7.55;;
44068;SDS011;29738;51.234;5.484;2023-03-19T06:38:22;11.93;;;6.60;;
44068;SDS011;29738;51.234;5.484;2023-03-19T06:40:48;12.93;;;7.03;;
44068;SDS011;29738;51.234;5.484;2023-03-19T06:43:15;13.82;;;7.50;;
44068;SDS011;29738;51.234;5.484;2023-03-19T06:45:41;13.52;;;6.82;;
44068;SDS011;29738;51.234;5.484;2023-03-19T06:48:07;15.65;;;7.63;;
44068;SDS011;29738;51.234;5.484;2023-03-19T06:50:33;12.63;;;6.30;;
44068;SDS011;29738;51.234;5.484;2023-03-19T06:52:59;13.60;;;7.25;;
44068;SDS011;29738;51.234;5.484;2023-03-19T06:55:26;17.17;;;10.10;;
44068;SDS011;29738;51.234;5.484;2023-03-19T06:57:54;19.45;;;10.68;;
44068;SDS011;29738;51.234;5.484;2023-03-19T07:00:20;19.85;;;12.27;;
44068;SDS011;29738;51.234;5.484;2023-03-19T07:02:46;27.30;;;19.25;;
44068;SDS011;29738;51.234;5.484;2023-03-19T07:05:12;24.90;;;14.52;;
44068;SDS011;29738;51.234;5.484;2023-03-19T07:07:38;21.42;;;12.65;;
44068;SDS011;29738;51.234;5.484;2023-03-19T07:10:04;28.13;;;16.48;;
44068;SDS011;29738;51.234;5.484;2023-03-19T07:12:31;24.50;;;15.25;;
44068;SDS011;29738;51.234;5.484;2023-03-19T07:14:57;56.90;;;39.10;;
44068;SDS011;29738;51.234;5.484;2023-03-19T07:17:23;25.00;;;16.00;;
44068;SDS011;29738;51.234;5.484;2023-03-19T07:19:50;23.25;;;13.55;;
44068;SDS011;29738;51.234;5.484;2023-03-19T07:22:16;24.20;;;14.43;;
44068;SDS011;29738;51.234;5.484;2023-03-19T07:24:43;22.15;;;12.35;;
44068;SDS011;29738;51.234;5.484;2023-03-19T07:27:09;27.00;;;16.30;;
44068;SDS011;29738;51.234;5.484;2023-03-19T07:29:35;25.38;;;11.68;;
44068;SDS011;29738;51.234;5.484;2023-03-19T07:32:02;17.95;;;9.18;;
44068;SDS011;29738;51.234;5.484;2023-03-19T07:34:28;19.48;;;10.63;;
44068;SDS011;29738;51.234;5.484;2023-03-19T07:36:54;16.73;;;9.50;;
44068;SDS011;29738;51.234;5.484;2023-03-19T07:39:20;16.67;;;9.18;;
44068;SDS011;29738;51.234;5.484;2023-03-19T07:41:46;26.88;;;14.68;;
44068;SDS011;29738;51.234;5.484;2023-03-19T07:44:13;17.83;;;9.25;;
44068;SDS011;29738;51.234;5.484;2023-03-19T07:46:40;23.60;;;11.98;;
44068;SDS011;29738;51.234;5.484;2023-03-19T07:49:06;16.65;;;8.43;;
44068;SDS011;29738;51.234;5.484;2023-03-19T07:51:32;19.33;;;9.55;;
44068;SDS011;29738;51.234;5.484;2023-03-19T07:53:59;19.40;;;9.18;;
44068;SDS011;29738;51.234;5.484;2023-03-19T07:56:25;23.58;;;10.45;;
44068;SDS011;29738;51.234;5.484;2023-03-19T07:58:51;17.33;;;8.65;;
44068;SDS011;29738;51.234;5.484;2023-03-19T08:01:17;14.88;;;6.93;;
44068;SDS011;29738;51.234;5.484;2023-03-19T08:03:43;12.48;;;6.03;;
44068;SDS011;29738;51.234;5.484;2023-03-19T08:06:13;15.40;;;8.55;;
44068;SDS011;29738;51.234;5.484;2023-03-19T08:08:39;16.42;;;9.88;;
44068;SDS011;29738;51.234;5.484;2023-03-19T08:11:05;14.48;;;5.82;;
44068;SDS011;29738;51.234;5.484;2023-03-19T08:13:31;14.63;;;8.35;;
44068;SDS011;29738;51.234;5.484;2023-03-19T08:15:58;13.23;;;5.15;;
44068;SDS011;29738;51.234;5.484;2023-03-19T08:18:24;10.75;;;4.57;;
44068;SDS011;29738;51.234;5.484;2023-03-19T08:20:50;11.38;;;6.20;;
44068;SDS011;29738;51.234;5.484;2023-03-19T08:23:17;10.32;;;4.30;;
44068;SDS011;29738;51.234;5.484;2023-03-19T08:25:43;7.22;;;3.00;;
44068;SDS011;29738;51.234;5.484;2023-03-19T08:28:20;11.80;;;4.97;;
44068;SDS011;29738;51.234;5.484;2023-03-19T08:30:47;9.88;;;3.22;;
44068;SDS011;29738;51.234;5.484;2023-03-19T08:33:13;8.00;;;3.88;;
44068;SDS011;29738;51.234;5.484;2023-03-19T08:35:39;13.88;;;5.13;;
44068;SDS011;29738;51.234;5.484;2023-03-19T08:38:05;11.27;;;3.72;;
44068;SDS011;29738;51.234;5.484;2023-03-19T08:40:32;10.15;;;3.38;;
44068;SDS011;29738;51.234;5.484;2023-03-19T08:42:58;5.88;;;2.22;;
44068;SDS011;29738;51.234;5.484;2023-03-19T08:45:24;7.13;;;3.28;;
44068;SDS011;29738;51.234;5.484;2023-03-19T08:47:50;6.60;;;2.50;;
44068;SDS011;29738;51.234;5.484;2023-03-19T08:50:16;13.05;;;6.68;;
44068;SDS011;29738;51.234;5.484;2023-03-19T08:52:43;11.63;;;4.82;;
44068;SDS011;29738;51.234;5.484;2023-03-19T08:55:09;13.90;;;5.22;;
44068;SDS011;29738;51.234;5.484;2023-03-19T08:57:35;8.77;;;3.35;;
44068;SDS011;29738;51.234;5.484;2023-03-19T09:00:02;6.53;;;3.33;;
44068;SDS011;29738;51.234;5.484;2023-03-19T09:02:32;10.80;;;5.30;;
44068;SDS011;29738;51.234;5.484;2023-03-19T09:04:58;16.10;;;7.10;;
44068;SDS011;29738;51.234;5.484;2023-03-19T09:07:24;10.73;;;5.40;;
44068;SDS011;29738;51.234;5.484;2023-03-19T09:09:50;8.52;;;3.80;;
44068;SDS011;29738;51.234;5.484;2023-03-19T09:12:16;14.80;;;8.63;;
44068;SDS011;29738;51.234;5.484;2023-03-19T09:14:43;8.00;;;3.58;;
44068;SDS011;29738;51.234;5.484;2023-03-19T09:17:09;9.07;;;3.70;;
44068;SDS011;29738;51.234;5.484;2023-03-19T09:19:37;9.00;;;2.80;;
44068;SDS011;29738;51.234;5.484;2023-03-19T09:22:03;10.48;;;5.63;;
44068;SDS011;29738;51.234;5.484;2023-03-19T09:24:30;8.90;;;3.95;;
44068;SDS011;29738;51.234;5.484;2023-03-19T09:26:56;6.68;;;2.20;;
44068;SDS011;29738;51.234;5.484;2023-03-19T09:29:22;9.75;;;3.22;;
44068;SDS011;29738;51.234;5.484;2023-03-19T09:31:48;8.63;;;3.03;;
44068;SDS011;29738;51.234;5.484;2023-03-19T09:34:14;7.82;;;2.20;;
44068;SDS011;29738;51.234;5.484;2023-03-19T09:36:40;7.10;;;2.28;;
44068;SDS011;29738;51.234;5.484;2023-03-19T09:39:06;9.90;;;3.35;;
44068;SDS011;29738;51.234;5.484;2023-03-19T09:44:12;6.47;;;2.85;;
44068;SDS011;29738;51.234;5.484;2023-03-19T09:46:46;6.40;;;3.30;;
44068;SDS011;29738;51.234;5.484;2023-03-19T09:55:26;13.15;;;5.63;;
44068;SDS011;29738;51.234;5.484;2023-03-19T09:57:59;6.88;;;2.25;;
44068;SDS011;29738;51.234;5.484;2023-03-19T10:00:33;9.18;;;2.60;;
44068;SDS011;29738;51.234;5.484;2023-03-19T10:05:41;8.15;;;2.63;;
44068;SDS011;29738;51.234;5.484;2023-03-19T10:10:54;6.63;;;2.58;;
44068;SDS011;29738;51.234;5.484;2023-03-19T10:16:21;7.78;;;2.67;;
44068;SDS011;29738;51.234;5.484;2023-03-19T10:18:51;7.70;;;3.00;;
44068;SDS011;29738;51.234;5.484;2023-03-19T10:21:41;11.23;;;4.93;;
44068;SDS011;29738;51.234;5.484;2023-03-19T10:24:16;16.35;;;5.65;;
44068;SDS011;29738;51.234;5.484;2023-03-19T10:26:58;7.90;;;2.90;;
44068;SDS011;29738;51.234;5.484;2023-03-19T10:29:27;8.98;;;3.30;;
44068;SDS011;29738;51.234;5.484;2023-03-19T10:34:58;7.93;;;2.15;;
44068;SDS011;29738;51.234;5.484;2023-03-19T10:37:32;10.18;;;2.85;;
44068;SDS011;29738;51.234;5.484;2023-03-19T10:40:00;5.13;;;2.15;;
44068;SDS011;29738;51.234;5.484;2023-03-19T10:45:23;4.80;;;1.90;;
44068;SDS011;29738;51.234;5.484;2023-03-19T10:48:02;8.30;;;3.42;;
44068;SDS011;29738;51.234;5.484;2023-03-19T10:50:48;7.60;;;3.38;;
44068;SDS011;29738;51.234;5.484;2023-03-19T10:55:53;8.73;;;3.40;;
44068;SDS011;29738;51.234;5.484;2023-03-19T10:58:28;6.32;;;2.60;;
44068;SDS011;29738;51.234;5.484;2023-03-19T11:01:02;6.97;;;2.10;;
44068;SDS011;29738;51.234;5.484;2023-03-19T11:03:36;6.13;;;2.00;;
44068;SDS011;29738;51.234;5.484;2023-03-19T11:11:46;6.90;;;2.42;;
44068;SDS011;29738;51.234;5.484;2023-03-19T11:14:29;9.02;;;2.35;;
44068;SDS011;29738;51.234;5.484;2023-03-19T11:17:13;7.57;;;2.20;;
44068;SDS011;29738;51.234;5.484;2023-03-19T11:19:42;9.48;;;3.53;;
44068;SDS011;29738;51.234;5.484;2023-03-19T11:22:21;24.23;;;11.60;;
44068;SDS011;29738;51.234;5.484;2023-03-19T11:27:17;8.70;;;3.42;;
44068;SDS011;29738;51.234;5.484;2023-03-19T11:29:43;8.70;;;3.35;;
44068;SDS011;29738;51.234;5.484;2023-03-19T11:35:14;9.98;;;4.25;;
44068;SDS011;29738;51.234;5.484;2023-03-19T11:37:53;8.75;;;4.13;;
44068;SDS011;29738;51.234;5.484;2023-03-19T11:43:20;9.27;;;4.28;;
44068;SDS011;29738;51.234;5.484;2023-03-19T11:48:43;8.85;;;3.30;;
44068;SDS011;29738;51.234;5.484;2023-03-19T11:51:21;8.82;;;3.45;;
44068;SDS011;29738;51.234;5.484;2023-03-19T11:53:58;13.25;;;4.18;;
44068;SDS011;29738;51.234;5.484;2023-03-19T11:59:18;7.45;;;3.80;;
44068;SDS011;29738;51.234;5.484;2023-03-19T12:07:35;8.60;;;3.20;;
44068;SDS011;29738;51.234;5.484;2023-03-19T12:13:30;10.63;;;4.35;;
44068;SDS011;29738;51.234;5.484;2023-03-19T12:16:25;7.35;;;3.92;;
44068;SDS011;29738;51.234;5.484;2023-03-19T12:19:18;8.38;;;3.50;;
44068;SDS011;29738;51.234;5.484;2023-03-19T12:21:56;9.50;;;3.53;;
44068;SDS011;29738;51.234;5.484;2023-03-19T12:29:58;7.68;;;2.80;;
44068;SDS011;29738;51.234;5.484;2023-03-19T12:35:40;7.97;;;3.10;;
44068;SDS011;29738;51.234;5.484;2023-03-19T12:38:17;6.50;;;1.92;;
44068;SDS011;29738;51.234;5.484;2023-03-19T12:40:54;5.53;;;2.05;;
44068;SDS011;29738;51.234;5.484;2023-03-19T12:46:01;7.07;;;1.50;;
44068;SDS011;29738;51.234;5.484;2023-03-19T12:48:43;5.90;;;1.58;;
44068;SDS011;29738;51.234;5.484;2023-03-19T12:51:19;5.43;;;1.77;;
44068;SDS011;29738;51.234;5.484;2023-03-19T12:53:50;4.05;;;1.63;;
44068;SDS011;29738;51.234;5.484;2023-03-19T13:01:51;4.80;;;1.05;;
44068;SDS011;29738;51.234;5.484;2023-03-19T13:04:24;3.65;;;1.30;;
44068;SDS011;29738;51.234;5.484;2023-03-19T13:06:59;4.28;;;1.55;;
44068;SDS011;29738;51.234;5.484;2023-03-19T13:09:34;4.57;;;1.40;;
44068;SDS011;29738;51.234;5.484;2023-03-19T13:12:09;4.70;;;1.50;;
44068;SDS011;29738;51.234;5.484;2023-03-19T13:20:24;4.68;;;1.92;;
44068;SDS011;29738;51.234;5.484;2023-03-19T13:23:10;5.05;;;1.40;;
44068;SDS011;29738;51.234;5.484;2023-03-19T13:25:43;4.95;;;1.70;;
44068;SDS011;29738;51.234;5.484;2023-03-19T13:28:20;5.78;;;1.40;;
44068;SDS011;29738;51.234;5.484;2023-03-19T13:30:59;5.40;;;1.55;;
44068;SDS011;29738;51.234;5.484;2023-03-19T13:33:29;4.72;;;1.70;;
44068;SDS011;29738;51.234;5.484;2023-03-19T13:35:59;6.07;;;1.27;;
44068;SDS011;29738;51.234;5.484;2023-03-19T13:41:04;6.55;;;1.80;;
44068;SDS011;29738;51.234;5.484;2023-03-19T13:56:25;5.97;;;2.00;;
44068;SDS011;29738;51.234;5.484;2023-03-19T13:59:39;6.32;;;2.10;;
44068;SDS011;29738;51.234;5.484;2023-03-19T14:01:48;6.40;;;1.80;;
44068;SDS011;29738;51.234;5.484;2023-03-19T14:04:18;6.40;;;2.33;;
44068;SDS011;29738;51.234;5.484;2023-03-19T14:06:48;5.75;;;2.08;;
44068;SDS011;29738;51.234;5.484;2023-03-19T14:09:53;4.95;;;2.10;;
44068;SDS011;29738;51.234;5.484;2023-03-19T14:12:35;6.95;;;2.90;;
44068;SDS011;29738;51.234;5.484;2023-03-19T14:17:44;6.28;;;2.90;;
44068;SDS011;29738;51.234;5.484;2023-03-19T14:28:17;6.18;;;2.20;;
44068;SDS011;29738;51.234;5.484;2023-03-19T14:30:47;7.13;;;2.45;;
44068;SDS011;29738;51.234;5.484;2023-03-19T14:33:24;6.05;;;2.10;;
44068;SDS011;29738;51.234;5.484;2023-03-19T14:35:53;6.97;;;2.75;;
44068;SDS011;29738;51.234;5.484;2023-03-19T14:38:37;7.38;;;3.53;;
44068;SDS011;29738;51.234;5.484;2023-03-19T14:41:10;7.68;;;3.63;;
44068;SDS011;29738;51.234;5.484;2023-03-19T14:43:52;8.65;;;4.40;;
44068;SDS011;29738;51.234;5.484;2023-03-19T14:52:19;9.50;;;3.03;;
44068;SDS011;29738;51.234;5.484;2023-03-19T14:55:00;10.20;;;3.33;;
44068;SDS011;29738;51.234;5.484;2023-03-19T14:57:39;8.05;;;3.47;;
44068;SDS011;29738;51.234;5.484;2023-03-19T15:00:06;9.05;;;4.15;;
44068;SDS011;29738;51.234;5.484;2023-03-19T15:02:38;9.25;;;4.10;;
44068;SDS011;29738;51.234;5.484;2023-03-19T15:05:30;10.68;;;4.57;;
44068;SDS011;29738;51.234;5.484;2023-03-19T15:08:04;9.07;;;4.45;;
44068;SDS011;29738;51.234;5.484;2023-03-19T15:13:45;5.88;;;3.38;;
44068;SDS011;29738;51.234;5.484;2023-03-19T15:19:16;6.30;;;3.13;;
44068;SDS011;29738;51.234;5.484;2023-03-19T15:21:50;7.55;;;3.47;;
44068;SDS011;29738;51.234;5.484;2023-03-19T15:24:16;7.50;;;3.60;;
44068;SDS011;29738;51.234;5.484;2023-03-19T15:26:43;8.90;;;3.55;;
44068;SDS011;29738;51.234;5.484;2023-03-19T15:29:10;8.40;;;4.63;;
44068;SDS011;29738;51.234;5.484;2023-03-19T15:31:41;10.48;;;4.78;;
44068;SDS011;29738;51.234;5.484;2023-03-19T15:34:18;10.65;;;5.07;;
44068;SDS011;29738;51.234;5.484;2023-03-19T15:36:47;9.80;;;5.22;;
44068;SDS011;29738;51.234;5.484;2023-03-19T15:39:17;10.07;;;4.72;;
44068;SDS011;29738;51.234;5.484;2023-03-19T15:41:46;11.05;;;5.60;;
44068;SDS011;29738;51.234;5.484;2023-03-19T15:44:18;10.95;;;4.85;;
44068;SDS011;29738;51.234;5.484;2023-03-19T15:46:55;8.50;;;4.70;;
44068;SDS011;29738;51.234;5.484;2023-03-19T15:49:27;9.30;;;4.40;;
44068;SDS011;29738;51.234;5.484;2023-03-19T15:52:08;37.33;;;27.58;;
44068;SDS011;29738;51.234;5.484;2023-03-19T15:54:37;13.15;;;7.38;;
44068;SDS011;29738;51.234;5.484;2023-03-19T15:57:04;8.52;;;4.13;;
44068;SDS011;29738;51.234;5.484;2023-03-19T15:59:31;9.80;;;4.65;;
44068;SDS011;29738;51.234;5.484;2023-03-19T16:02:02;10.73;;;4.88;;
44068;SDS011;29738;51.234;5.484;2023-03-19T16:04:37;10.45;;;5.30;;
44068;SDS011;29738;51.234;5.484;2023-03-19T16:07:03;14.77;;;5.88;;
44068;SDS011;29738;51.234;5.484;2023-03-19T16:09:31;13.93;;;6.32;;
44068;SDS011;29738;51.234;5.484;2023-03-19T16:11:58;12.57;;;6.30;;
44068;SDS011;29738;51.234;5.484;2023-03-19T16:16:59;13.20;;;5.75;;
44068;SDS011;29738;51.234;5.484;2023-03-19T16:19:37;12.57;;;5.88;;
44068;SDS011;29738;51.234;5.484;2023-03-19T16:22:17;15.52;;;6.82;;
44068;SDS011;29738;51.234;5.484;2023-03-19T16:24:47;20.58;;;10.02;;
44068;SDS011;29738;51.234;5.484;2023-03-19T16:27:16;24.35;;;12.65;;
44068;SDS011;29738;51.234;5.484;2023-03-19T16:29:58;26.65;;;12.57;;
44068;SDS011;29738;51.234;5.484;2023-03-19T16:32:25;25.35;;;12.05;;
44068;SDS011;29738;51.234;5.484;2023-03-19T16:34:56;21.90;;;10.68;;
44068;SDS011;29738;51.234;5.484;2023-03-19T16:42:40;21.45;;;10.50;;
44068;SDS011;29738;51.234;5.484;2023-03-19T16:45:19;16.85;;;9.80;;
44068;SDS011;29738;51.234;5.484;2023-03-19T16:47:54;19.90;;;9.52;;
44068;SDS011;29738;51.234;5.484;2023-03-19T16:50:26;20.58;;;9.82;;
44068;SDS011;29738;51.234;5.484;2023-03-19T16:53:40;20.02;;;10.93;;
44068;SDS011;29738;51.234;5.484;2023-03-19T16:56:00;17.70;;;9.00;;
44068;SDS011;29738;51.234;5.484;2023-03-19T16:58:28;17.80;;;9.75;;
44068;SDS011;29738;51.234;5.484;2023-03-19T17:00:59;16.83;;;8.77;;